createdAt,value
2023-06-08T00:01:47.179Z,97521.53
2023-06-08T00:04:14.207Z,97521.50
2023-06-08T00:06:42.314Z,97514.34
2023-06-08T00:09:10.534Z,97510.97
2023-06-08T00:11:38.132Z,97513.03
2023-06-08T00:14:04.762Z,97517.63
2023-06-08T00:16:31.256Z,97517.63
2023-06-08T00:18:58.082Z,97508.22
2023-06-08T00:21:25.064Z,97520.13
2023-06-08T00:23:52.015Z,97515.91
2023-06-08T00:26:18.660Z,97520.47
2023-06-08T00:28:48.759Z,97519.97
2023-06-08T00:31:18.618Z,97513.34
2023-06-08T00:33:45.165Z,97517.78
2023-06-08T00:36:13.471Z,97518.66
2023-06-08T00:38:40.007Z,97518.00
2023-06-08T00:41:07.097Z,97502.28
2023-06-08T00:43:34.053Z,97504.31
2023-06-08T00:46:03.166Z,97496.78
2023-06-08T00:48:30.908Z,97494.22
2023-06-08T00:50:58.426Z,97496.69
2023-06-08T00:53:25.713Z,97491.41
2023-06-08T00:55:52.792Z,97491.84
2023-06-08T00:58:19.648Z,97476.00
2023-06-08T01:00:47.610Z,97475.66
2023-06-08T01:03:16.007Z,97474.81
2023-06-08T01:05:46.070Z,97486.25
2023-06-08T01:08:39.250Z,97483.91
2023-06-08T01:11:20.060Z,97478.84
2023-06-08T01:13:55.700Z,97474.31
2023-06-08T01:16:23.604Z,97467.97
2023-06-08T01:18:52.975Z,97469.84
2023-06-08T01:21:39.620Z,97461.25
2023-06-08T01:24:13.454Z,97458.28
2023-06-08T01:26:50.596Z,97459.97
2023-06-08T01:29:26.793Z,97455.13
2023-06-08T01:31:53.429Z,97456.00
2023-06-08T01:34:20.544Z,97455.97
2023-06-08T01:36:55.715Z,97456.59
2023-06-08T01:39:46.530Z,97455.63
2023-06-08T01:42:16.115Z,97458.03
2023-06-08T01:44:45.463Z,97457.13
2023-06-08T01:47:13.781Z,97450.75
2023-06-08T01:49:41.381Z,97450.84
2023-06-08T01:52:10.890Z,97443.44
2023-06-08T01:54:37.743Z,97447.31
2023-06-08T01:57:04.397Z,97446.25
2023-06-08T01:59:33.932Z,97445.44
2023-06-08T02:02:01.643Z,97442.69
2023-06-08T02:04:28.185Z,97432.53
2023-06-08T02:06:55.938Z,97433.28
2023-06-08T02:09:22.558Z,97430.81
2023-06-08T02:11:50.246Z,97434.56
2023-06-08T02:14:16.783Z,97441.59
2023-06-08T02:16:45.376Z,97434.94
2023-06-08T02:19:15.303Z,97430.41
2023-06-08T02:21:42.471Z,97431.25
2023-06-08T02:24:09.277Z,97427.69
2023-06-08T02:26:35.835Z,97437.53
2023-06-08T02:29:02.373Z,97426.78
2023-06-08T02:31:29.391Z,97433.28
2023-06-08T02:33:55.896Z,97429.06
2023-06-08T02:36:24.276Z,97422.78
2023-06-08T02:38:51.008Z,97436.53
2023-06-08T02:41:18.193Z,97421.94
2023-06-08T02:43:44.751Z,97427.25
2023-06-08T02:46:11.622Z,97426.25
2023-06-08T02:48:39.144Z,97423.72
2023-06-08T02:51:05.897Z,97423.69
2023-06-08T02:53:32.476Z,97421.81
2023-06-08T02:55:59.286Z,97421.34
2023-06-08T02:58:27.490Z,97421.09
2023-06-08T03:01:19.445Z,97424.97
2023-06-08T03:04:06.653Z,97420.91
2023-06-08T03:06:43.521Z,97424.50
2023-06-08T03:09:12.157Z,97416.88
2023-06-08T03:11:42.452Z,97420.22
2023-06-08T03:14:11.626Z,97423.91
2023-06-08T03:16:38.705Z,97426.34
2023-06-08T03:19:05.969Z,97428.25
2023-06-08T03:21:34.273Z,97428.13
2023-06-08T03:24:01.124Z,97426.91
2023-06-08T03:26:29.488Z,97428.00
2023-06-08T03:28:57.984Z,97426.59
2023-06-08T03:31:25.351Z,97426.66
2023-06-08T03:33:53.159Z,97430.00
2023-06-08T03:36:20.146Z,97433.13
2023-06-08T03:38:46.696Z,97435.63
2023-06-08T03:41:16.328Z,97438.22
2023-06-08T03:43:46.484Z,97439.16
2023-06-08T03:46:13.879Z,97441.28
2023-06-08T03:48:41.608Z,97444.41
2023-06-08T03:51:08.312Z,97459.34
2023-06-08T03:53:36.806Z,97456.81
2023-06-08T03:56:04.250Z,97451.00
2023-06-08T03:58:34.067Z,97467.44
2023-06-08T04:01:01.066Z,97459.56
2023-06-08T04:03:28.516Z,97469.53
2023-06-08T04:05:55.289Z,97463.75
2023-06-08T04:08:22.962Z,97467.94
2023-06-08T04:10:50.932Z,97462.63
2023-06-08T04:13:17.414Z,97465.56
2023-06-08T04:15:45.128Z,97473.13
2023-06-08T04:18:12.998Z,97474.84
2023-06-08T04:20:41.253Z,97466.88
2023-06-08T04:23:08.170Z,97472.31
2023-06-08T04:25:34.807Z,97485.94
2023-06-08T04:28:01.520Z,97482.72
2023-06-08T04:30:29.414Z,97483.78
2023-06-08T04:32:56.571Z,97486.13
2023-06-08T04:35:23.879Z,97481.72
2023-06-08T04:37:50.718Z,97482.38
2023-06-08T04:40:18.092Z,97482.84
2023-06-08T04:42:45.668Z,97486.69
2023-06-08T04:45:12.583Z,97482.78
2023-06-08T04:47:43.303Z,97490.09
2023-06-08T04:50:10.136Z,97487.78
2023-06-08T04:52:41.484Z,97482.63
2023-06-08T04:55:08.938Z,97481.38
2023-06-08T04:57:35.557Z,97485.66
2023-06-08T05:00:02.265Z,97491.13
2023-06-08T05:02:28.849Z,97489.41
2023-06-08T05:04:56.677Z,97497.59
2023-06-08T05:07:23.169Z,97489.84
2023-06-08T05:09:50.960Z,97494.06
2023-06-08T05:12:17.444Z,97498.25
2023-06-08T05:14:43.928Z,97503.28
2023-06-08T05:17:10.866Z,97496.59
2023-06-08T05:19:37.452Z,97501.63
2023-06-08T05:22:04.031Z,97500.38
2023-06-08T05:24:30.614Z,97498.25
2023-06-08T05:26:57.096Z,97500.78
2023-06-08T05:29:23.619Z,97503.31
2023-06-08T05:31:50.690Z,97499.09
2023-06-08T05:34:17.976Z,97503.72
2023-06-08T05:36:44.530Z,97505.00
2023-06-08T05:39:11.454Z,97504.34
2023-06-08T05:41:37.968Z,97500.59
2023-06-08T05:44:04.506Z,97503.44
2023-06-08T05:46:31.132Z,97501.97
2023-06-08T05:48:58.380Z,97499.56
2023-06-08T05:51:24.931Z,97506.66
2023-06-08T05:53:51.435Z,97499.03
2023-06-08T05:56:17.902Z,97497.66
2023-06-08T05:58:49.886Z,97496.31
2023-06-08T06:01:16.949Z,97496.09
2023-06-08T06:03:43.815Z,97495.94
2023-06-08T06:06:12.150Z,97499.59
2023-06-08T06:08:40.213Z,97495.72
2023-06-08T06:11:07.900Z,97493.81
2023-06-08T06:13:35.243Z,97492.63
2023-06-08T06:16:01.977Z,97493.78
2023-06-08T06:18:28.740Z,97487.44
2023-06-08T06:20:55.368Z,97489.13
2023-06-08T06:23:21.898Z,97481.06
2023-06-08T06:25:51.243Z,97485.47
2023-06-08T06:28:17.985Z,97481.47
2023-06-08T06:30:44.497Z,97477.22
2023-06-08T06:33:11.152Z,97480.31
2023-06-08T06:35:37.698Z,97495.06
2023-06-08T06:38:04.231Z,97486.56
2023-06-08T06:40:30.937Z,97486.13
2023-06-08T06:42:57.554Z,97489.16
2023-06-08T06:45:41.324Z,97493.84
2023-06-08T06:48:07.851Z,97490.84
2023-06-08T06:50:34.482Z,97490.31
2023-06-08T06:53:00.972Z,97485.91
2023-06-08T06:55:27.550Z,97488.41
2023-06-08T06:57:54.330Z,97485.53
2023-06-08T07:00:21.045Z,97482.00
2023-06-08T07:02:48.521Z,97481.28
2023-06-08T07:05:15.551Z,97479.97
2023-06-08T07:07:42.087Z,97480.72
2023-06-08T07:10:08.931Z,97477.13
2023-06-08T07:12:35.900Z,97478.47
2023-06-08T07:15:02.458Z,97481.13
2023-06-08T07:17:30.325Z,97477.66
2023-06-08T07:19:58.784Z,97478.03
2023-06-08T07:22:39.657Z,97473.09
2023-06-08T07:25:43.969Z,97474.47
2023-06-08T07:27:59.544Z,97475.00
2023-06-08T07:30:27.296Z,97475.63
2023-06-08T07:32:53.911Z,97473.63
2023-06-08T07:35:20.819Z,97475.84
2023-06-08T07:37:48.133Z,97464.69
2023-06-08T07:40:18.948Z,97461.53
2023-06-08T07:42:45.990Z,97467.03
2023-06-08T07:45:13.015Z,97460.63
2023-06-08T07:47:40.184Z,97470.13
2023-06-08T07:50:07.565Z,97461.25
2023-06-08T07:52:34.376Z,97461.53
2023-06-08T07:55:01.070Z,97466.19
2023-06-08T07:57:28.505Z,97459.69
2023-06-08T07:59:55.016Z,97459.50
2023-06-08T08:02:21.945Z,97465.06
2023-06-08T08:04:48.696Z,97465.09
2023-06-08T08:07:15.376Z,97468.44
2023-06-08T08:09:44.928Z,97461.78
2023-06-08T08:12:11.517Z,97467.69
2023-06-08T08:14:38.719Z,97471.53
2023-06-08T08:17:05.590Z,97464.88
2023-06-08T08:19:32.223Z,97462.44
2023-06-08T08:21:58.685Z,97459.91
2023-06-08T08:24:25.177Z,97458.25
2023-06-08T08:26:54.409Z,97459.31
2023-06-08T08:29:20.900Z,97460.03
2023-06-08T08:31:47.385Z,97455.69
2023-06-08T08:34:13.876Z,97450.97
2023-06-08T08:36:40.832Z,97463.91
2023-06-08T08:39:08.523Z,97459.78
2023-06-08T08:41:35.959Z,97456.59
2023-06-08T08:44:04.216Z,97452.13
2023-06-08T08:46:40.339Z,97447.50
2023-06-08T08:49:15.328Z,97456.50
2023-06-08T08:51:44.263Z,97448.13
2023-06-08T08:54:13.310Z,97438.03
2023-06-08T08:56:39.969Z,97448.25
2023-06-08T08:59:06.591Z,97445.34
2023-06-08T09:01:33.895Z,97453.84
2023-06-08T09:04:00.969Z,97450.78
2023-06-08T09:06:30.764Z,97451.34
2023-06-08T09:08:57.659Z,97448.22
2023-06-08T09:11:25.048Z,97448.88
2023-06-08T09:14:08.524Z,97447.09
2023-06-08T09:16:44.708Z,97449.56
2023-06-08T09:19:11.645Z,97445.31
2023-06-08T09:21:38.220Z,97445.66
2023-06-08T09:24:11.414Z,97449.16
2023-06-08T09:26:58.928Z,97442.47
2023-06-08T09:29:41.951Z,97441.06
2023-06-08T09:32:15.515Z,97437.63
2023-06-08T09:35:02.043Z,97429.44
2023-06-08T09:37:32.508Z,97428.03
2023-06-08T09:40:00.313Z,97418.13
2023-06-08T09:42:47.411Z,97414.06
2023-06-08T09:45:15.774Z,97404.94
2023-06-08T09:47:43.567Z,97407.91
2023-06-08T09:50:11.128Z,97401.69
2023-06-08T09:52:38.587Z,97400.00
2023-06-08T09:55:06.350Z,97395.09
2023-06-08T09:57:34.323Z,97386.41
2023-06-08T10:00:15.652Z,97384.59
2023-06-08T10:02:44.054Z,97387.50
2023-06-08T10:05:14.311Z,97388.63
2023-06-08T10:07:43.052Z,97383.94
2023-06-08T10:10:12.392Z,97393.16
2023-06-08T10:12:39.597Z,97387.22
2023-06-08T10:15:07.053Z,97386.84
2023-06-08T10:17:34.902Z,97380.22
2023-06-08T10:20:01.580Z,97372.53
2023-06-08T10:22:29.362Z,97375.69
2023-06-08T10:25:08.377Z,97378.59
2023-06-08T10:27:37.195Z,97373.22
2023-06-08T10:30:05.703Z,97373.50
2023-06-08T10:32:33.261Z,97365.91
2023-06-08T10:35:02.175Z,97359.28
2023-06-08T10:37:29.860Z,97357.66
2023-06-08T10:39:57.659Z,97343.25
2023-06-08T10:42:24.357Z,97349.88
2023-06-08T10:44:57.625Z,97332.75
2023-06-08T10:47:24.634Z,97327.56
2023-06-08T10:50:04.873Z,97329.91
2023-06-08T10:52:39.833Z,97322.44
2023-06-08T10:55:09.916Z,97315.78
2023-06-08T10:57:36.776Z,97314.41
2023-06-08T11:00:33.375Z,97312.22
2023-06-08T11:03:01.041Z,97305.22
2023-06-08T11:05:31.707Z,97304.41
2023-06-08T11:07:58.297Z,97304.63
2023-06-08T11:10:24.889Z,97294.47
2023-06-08T11:12:51.461Z,97283.63
2023-06-08T11:15:19.697Z,97285.81
2023-06-08T11:17:52.418Z,97285.69
2023-06-08T11:20:24.259Z,97282.00
2023-06-08T11:22:50.840Z,97271.22
2023-06-08T11:25:26.363Z,97280.34
2023-06-08T11:27:56.511Z,97271.19
2023-06-08T11:30:25.138Z,97261.81
2023-06-08T11:32:52.123Z,97262.78
2023-06-08T11:35:19.496Z,97267.50
2023-06-08T11:37:46.310Z,97262.28
2023-06-08T11:40:13.746Z,97260.09
2023-06-08T11:42:41.092Z,97261.25
2023-06-08T11:45:09.142Z,97271.25
2023-06-08T11:47:35.901Z,97256.56
2023-06-08T11:50:04.477Z,97265.13
2023-06-08T11:52:31.649Z,97264.75
2023-06-08T11:55:00.624Z,97256.25
2023-06-08T11:57:43.330Z,97255.72
2023-06-08T12:00:23.182Z,97250.69
2023-06-08T12:02:52.685Z,97250.44
2023-06-08T12:05:21.705Z,97256.13
2023-06-08T12:08:00.351Z,97241.53
2023-06-08T12:10:35.608Z,97240.78
2023-06-08T12:13:09.219Z,97237.97
2023-06-08T12:15:37.202Z,97242.38
2023-06-08T12:18:03.826Z,97242.09
2023-06-08T12:20:34.289Z,97235.69
2023-06-08T12:23:01.021Z,97227.84
2023-06-08T12:25:27.607Z,97229.78
2023-06-08T12:27:55.718Z,97232.41
2023-06-08T12:30:24.542Z,97231.53
2023-06-08T12:32:51.665Z,97232.78
2023-06-08T12:35:19.705Z,97223.09
2023-06-08T12:37:50.343Z,97230.44
2023-06-08T12:40:17.931Z,97224.66
2023-06-08T12:42:50.069Z,97214.34
2023-06-08T12:45:22.949Z,97219.34
2023-06-08T12:47:49.835Z,97226.22
2023-06-08T12:50:22.997Z,97223.09
2023-06-08T12:52:49.787Z,97221.34
2023-06-08T12:55:17.618Z,97226.47
2023-06-08T12:57:44.646Z,97232.19
2023-06-08T13:00:13.030Z,97231.88
2023-06-08T13:02:39.781Z,97229.97
2023-06-08T13:05:06.849Z,97226.13
2023-06-08T13:07:33.790Z,97228.50
2023-06-08T13:10:00.448Z,97235.22
2023-06-08T13:12:29.299Z,97238.03
2023-06-08T13:14:56.311Z,97226.94
2023-06-08T13:17:23.196Z,97224.25
2023-06-08T13:19:50.027Z,97232.00
2023-06-08T13:22:16.833Z,97229.19
2023-06-08T13:24:43.516Z,97231.06
2023-06-08T13:27:10.494Z,97236.50
2023-06-08T13:29:39.623Z,97239.34
2023-06-08T13:32:06.776Z,97237.63
2023-06-08T13:34:33.450Z,97248.22
2023-06-08T13:37:02.289Z,97239.97
2023-06-08T13:39:29.039Z,97238.19
2023-06-08T13:41:55.554Z,97235.53
2023-06-08T13:44:22.651Z,97231.72
2023-06-08T13:46:49.221Z,97243.38
2023-06-08T13:49:15.859Z,97261.81
2023-06-08T13:51:43.306Z,97268.97
2023-06-08T13:54:09.837Z,97281.75
2023-06-08T13:56:36.323Z,97286.13
2023-06-08T13:59:03.223Z,97287.50
2023-06-08T14:01:29.943Z,97312.75
2023-06-08T14:03:57.458Z,97310.75
2023-06-08T14:06:24.170Z,97303.78
2023-06-08T14:08:50.670Z,97310.59
2023-06-08T14:11:17.177Z,97319.16
2023-06-08T14:13:44.767Z,97317.22
2023-06-08T14:16:13.996Z,97328.50
2023-06-08T14:18:42.079Z,97345.75
2023-06-08T14:21:09.094Z,97354.16
2023-06-08T14:23:35.791Z,97360.66
2023-06-08T14:26:02.680Z,97368.81
2023-06-08T14:28:29.183Z,97376.41
2023-06-08T14:30:56.112Z,97370.09
2023-06-08T14:33:22.667Z,97356.19
2023-06-08T14:35:49.215Z,97344.44
2023-06-08T14:38:15.762Z,97342.41
2023-06-08T14:40:42.324Z,97357.13
2023-06-08T14:43:09.063Z,97371.09
2023-06-08T14:45:37.127Z,97393.75
2023-06-08T14:48:04.017Z,97405.00
2023-06-08T14:50:30.912Z,97415.88
2023-06-08T14:52:57.532Z,97422.91
2023-06-08T14:55:23.985Z,97418.75
2023-06-08T14:57:50.724Z,97420.94
2023-06-08T15:00:17.845Z,97424.09
2023-06-08T15:02:44.392Z,97421.19
2023-06-08T15:05:11.046Z,97422.31
2023-06-08T15:07:37.532Z,97415.72
2023-06-08T15:10:04.850Z,97405.66
2023-06-08T15:12:31.558Z,97410.97
2023-06-08T15:14:58.187Z,97402.41
2023-06-08T15:17:24.811Z,97396.28
2023-06-08T15:19:51.764Z,97397.97
2023-06-08T15:22:18.385Z,97406.22
2023-06-08T15:24:44.924Z,97404.81
2023-06-08T15:27:11.481Z,97408.88
2023-06-08T15:29:38.007Z,97396.75
2023-06-08T15:32:04.753Z,97395.34
2023-06-08T15:34:31.245Z,97386.34
2023-06-08T15:36:57.732Z,97395.66
2023-06-08T15:39:24.211Z,97393.00
2023-06-08T15:41:50.776Z,97387.75
2023-06-08T15:44:17.353Z,97387.38
2023-06-08T15:46:43.991Z,97386.50
2023-06-08T15:49:10.618Z,97384.50
2023-06-08T15:51:43.177Z,97385.00
2023-06-08T15:54:10.916Z,97379.97
2023-06-08T15:56:37.520Z,97375.81
2023-06-08T15:59:04.008Z,97372.84
2023-06-08T16:01:32.479Z,97373.59
2023-06-08T16:03:59.717Z,97365.66
2023-06-08T16:06:26.590Z,97354.34
2023-06-08T16:08:53.283Z,97350.75
2023-06-08T16:11:21.179Z,97340.94
2023-06-08T16:13:50.077Z,97342.38
2023-06-08T16:16:16.965Z,97338.03
2023-06-08T16:18:43.535Z,97327.50
2023-06-08T16:21:10.181Z,97322.28
2023-06-08T16:23:36.755Z,97321.47
2023-06-08T16:26:03.618Z,97323.13
2023-06-08T16:28:31.612Z,97320.63
2023-06-08T16:30:58.544Z,97330.78
2023-06-08T16:33:25.084Z,97330.31
2023-06-08T16:35:53.405Z,97323.78
2023-06-08T16:38:20.450Z,97328.19
2023-06-08T16:40:47.020Z,97320.47
2023-06-08T16:43:13.954Z,97325.28
2023-06-08T16:45:40.474Z,97313.53
2023-06-08T16:48:07.068Z,97306.56
2023-06-08T16:50:33.671Z,97296.53
2023-06-08T16:53:00.243Z,97291.72
2023-06-08T16:55:26.918Z,97286.63
2023-06-08T16:57:53.622Z,97290.56
2023-06-08T17:00:21.527Z,97280.72
2023-06-08T17:02:48.089Z,97278.25
2023-06-08T17:05:15.020Z,97285.84
2023-06-08T17:07:41.723Z,97293.00
2023-06-08T17:10:08.735Z,97287.75
2023-06-08T17:12:35.658Z,97290.91
2023-06-08T17:15:04.801Z,97282.50
2023-06-08T17:17:31.388Z,97276.66
2023-06-08T17:19:58.001Z,97272.03
2023-06-08T17:22:25.104Z,97270.34
2023-06-08T17:24:51.714Z,97262.81
2023-06-08T17:27:18.318Z,97257.06
2023-06-08T17:29:44.984Z,97268.22
2023-06-08T17:32:11.639Z,97264.66
2023-06-08T17:34:38.123Z,97261.81
2023-06-08T17:37:04.765Z,97260.19
2023-06-08T17:39:31.267Z,97263.97
2023-06-08T17:41:57.801Z,97257.09
2023-06-08T17:44:24.393Z,97252.75
2023-06-08T17:46:50.900Z,97256.03
2023-06-08T17:49:18.960Z,97252.66
2023-06-08T17:51:45.937Z,97248.25
2023-06-08T17:54:15.051Z,97246.41
2023-06-08T17:56:44.678Z,97243.97
2023-06-08T17:59:12.204Z,97245.59
2023-06-08T18:01:38.862Z,97244.13
2023-06-08T18:04:06.234Z,97246.84
2023-06-08T18:06:32.931Z,97253.59
2023-06-08T18:08:59.766Z,97256.31
2023-06-08T18:11:27.387Z,97272.44
2023-06-08T18:13:54.194Z,97263.44
2023-06-08T18:16:21.302Z,97264.03
2023-06-08T18:18:48.883Z,97267.84
2023-06-08T18:21:15.962Z,97264.03
2023-06-08T18:23:42.692Z,97270.94
2023-06-08T18:26:09.271Z,97259.84
2023-06-08T18:28:35.875Z,97267.00
2023-06-08T18:31:02.398Z,97256.91
2023-06-08T18:33:29.048Z,97266.66
2023-06-08T18:35:55.655Z,97268.66
2023-06-08T18:38:22.549Z,97275.28
2023-06-08T18:40:49.177Z,97275.69
2023-06-08T18:43:15.899Z,97268.97
2023-06-08T18:45:42.494Z,97284.03
2023-06-08T18:48:10.164Z,97281.41
2023-06-08T18:50:36.833Z,97275.09
2023-06-08T18:53:03.566Z,97276.31
2023-06-08T18:55:32.115Z,97285.56
2023-06-08T18:57:59.882Z,97288.53
2023-06-08T19:00:27.013Z,97298.16
2023-06-08T19:02:55.420Z,97292.34
2023-06-08T19:05:21.990Z,97292.50
2023-06-08T19:07:48.537Z,97292.69
2023-06-08T19:10:15.157Z,97291.00
2023-06-08T19:12:41.657Z,97290.22
2023-06-08T19:15:09.251Z,97294.22
2023-06-08T19:17:35.775Z,97294.66
2023-06-08T19:20:02.402Z,97285.16
2023-06-08T19:22:28.985Z,97297.25
2023-06-08T19:24:55.542Z,97292.25
2023-06-08T19:27:22.128Z,97297.72
2023-06-08T19:29:48.839Z,97313.59
2023-06-08T19:32:15.469Z,97320.09
2023-06-08T19:34:42.295Z,97312.38
2023-06-08T19:37:08.902Z,97317.56
2023-06-08T19:39:35.398Z,97325.34
2023-06-08T19:42:04.023Z,97323.66
2023-06-08T19:44:31.411Z,97321.41
2023-06-08T19:46:58.242Z,97335.09
2023-06-08T19:49:27.927Z,97337.16
2023-06-08T19:51:55.498Z,97340.78
2023-06-08T19:54:23.933Z,97334.72
2023-06-08T19:56:51.316Z,97334.78
2023-06-08T19:59:18.531Z,97329.75
2023-06-08T20:01:49.999Z,97331.75
2023-06-08T20:04:16.963Z,97343.09
2023-06-08T20:06:47.735Z,97354.34
2023-06-08T20:09:14.972Z,97355.63
2023-06-08T20:11:41.481Z,97361.47
2023-06-08T20:14:07.984Z,97355.25
2023-06-08T20:16:34.591Z,97356.94
2023-06-08T20:19:01.224Z,97366.13
2023-06-08T20:21:27.710Z,97362.13
2023-06-08T20:23:55.106Z,97366.38
2023-06-08T20:26:24.294Z,97358.53
2023-06-08T20:28:51.508Z,97366.13
2023-06-08T20:31:18.020Z,97369.16
2023-06-08T20:33:44.568Z,97368.78
2023-06-08T20:36:11.101Z,97364.72
2023-06-08T20:38:37.693Z,97371.56
2023-06-08T20:41:04.184Z,97371.31
2023-06-08T20:43:30.694Z,97370.44
2023-06-08T20:45:57.271Z,97370.94
2023-06-08T20:48:25.318Z,97367.59
2023-06-08T20:50:51.900Z,97369.94
2023-06-08T20:53:18.368Z,97367.06
2023-06-08T20:55:46.343Z,97363.53
2023-06-08T20:58:13.200Z,97358.16
2023-06-08T21:00:39.952Z,97361.91
2023-06-08T21:03:06.615Z,97359.06
2023-06-08T21:05:33.352Z,97363.84
2023-06-08T21:07:59.889Z,97359.50
2023-06-08T21:10:28.155Z,97371.28
2023-06-08T21:12:54.788Z,97368.00
2023-06-08T21:15:21.388Z,97366.44
2023-06-08T21:17:48.192Z,97364.50
2023-06-08T21:20:14.755Z,97359.56
2023-06-08T21:22:41.975Z,97361.41
2023-06-08T21:25:08.915Z,97364.19
2023-06-08T21:27:35.673Z,97372.63
2023-06-08T21:30:02.265Z,97376.25
2023-06-08T21:32:28.778Z,97364.09
2023-06-08T21:34:55.372Z,97368.34
2023-06-08T21:37:21.842Z,97373.78
2023-06-08T21:39:48.377Z,97381.81
2023-06-08T21:42:15.056Z,97372.13
2023-06-08T21:44:41.697Z,97377.19
2023-06-08T21:47:08.213Z,97370.97
2023-06-08T21:49:34.765Z,97378.69
2023-06-08T21:52:01.472Z,97384.97
2023-06-08T21:54:28.110Z,97377.09
2023-06-08T21:56:54.735Z,97385.28
2023-06-08T21:59:21.464Z,97379.09
2023-06-08T22:01:48.200Z,97375.75
2023-06-08T22:04:14.900Z,97369.41
2023-06-08T22:06:41.544Z,97378.13
2023-06-08T22:09:08.086Z,97375.38
2023-06-08T22:11:35.315Z,97373.69
2023-06-08T22:14:03.948Z,97383.25
2023-06-08T22:16:31.274Z,97377.28
2023-06-08T22:19:01.728Z,97374.47
2023-06-08T22:21:28.548Z,97373.56
2023-06-08T22:23:55.065Z,97372.69
2023-06-08T22:26:21.617Z,97365.28
2023-06-08T22:28:48.155Z,97365.28
2023-06-08T22:31:14.987Z,97369.81
2023-06-08T22:33:41.601Z,97369.81
2023-06-08T22:36:09.715Z,97372.13
2023-06-08T22:38:36.259Z,97370.72
2023-06-08T22:41:02.810Z,97361.53
2023-06-08T22:43:29.375Z,97364.88
2023-06-08T22:45:55.991Z,97365.00
2023-06-08T22:48:23.474Z,97373.56
2023-06-08T22:50:50.192Z,97370.31
2023-06-08T22:53:22.552Z,97365.66
2023-06-08T22:55:49.921Z,97359.31
2023-06-08T22:58:16.546Z,97353.63
2023-06-08T23:00:43.303Z,97357.25
2023-06-08T23:03:10.916Z,97368.75
2023-06-08T23:05:37.728Z,97360.34
2023-06-08T23:08:04.424Z,97348.72
2023-06-08T23:10:30.907Z,97343.66
2023-06-08T23:12:57.772Z,97341.53
2023-06-08T23:15:24.685Z,97337.72
2023-06-08T23:17:52.407Z,97342.38
2023-06-08T23:20:18.968Z,97333.13
2023-06-08T23:22:45.808Z,97329.94
2023-06-08T23:25:14.458Z,97327.88
2023-06-08T23:27:41.039Z,97328.91
2023-06-08T23:30:08.580Z,97318.16
2023-06-08T23:32:35.284Z,97326.97
2023-06-08T23:35:01.979Z,97337.78
2023-06-08T23:37:29.270Z,97322.63
2023-06-08T23:39:55.820Z,97318.06
2023-06-08T23:42:22.872Z,97320.66
2023-06-08T23:44:50.117Z,97312.38
2023-06-08T23:47:21.698Z,97308.88
2023-06-08T23:49:48.718Z,97309.31
2023-06-08T23:52:15.684Z,97313.16
2023-06-08T23:54:42.307Z,97304.88
2023-06-08T23:57:09.594Z,97309.78
2023-06-08T23:59:38.272Z,97315.97
